Time;durP1;ratioP1;P1;durP2;ratioP2;P2;SDS_P1;SDS_P2;PMS_P1;PMS_P2;Temp;Humidity;BMP_temperature;BMP_pressure;BME280_temperature;BME280_humidity;BME280_pressure;Samples;Min_cycle;Max_cycle;Signal;HPM_P1;HPM_P2
2022/07/02 04:01:46;;;;;;;4.30;1.53;;;15.80;96.30;;;;;;5415585;23;20492;-78
2022/07/02 04:04:12;;;;;;;2.13;1.60;;;16.30;96.30;;;;;;4993464;28;20765;-77
2022/07/02 04:06:37;;;;;;;2.33;1.30;;;16.60;96.30;;;;;;4993735;28;20169;-77
2022/07/02 04:09:03;;;;;;;2.10;1.80;;;16.80;96.30;;;;;;4975104;28;20169;-77
2022/07/02 04:11:28;;;;;;;2.13;1.50;;;17.00;96.30;;;;;;4993433;28;20280;-77
2022/07/02 04:13:54;;;;;;;3.30;1.63;;;17.20;96.30;;;;;;4977249;28;20170;-77
2022/07/02 04:16:19;;;;;;;1.60;1.30;;;17.40;96.30;;;;;;4995350;28;20170;-78
2022/07/02 04:18:45;;;;;;;2.07;1.40;;;17.60;96.30;;;;;;4992529;28;20252;-77
2022/07/02 04:21:10;;;;;;;3.07;1.50;;;18.00;96.30;;;;;;4993015;28;20194;-77
2022/07/02 04:23:36;;;;;;;1.97;1.77;;;18.30;96.30;;;;;;4993360;28;20612;-77
2022/07/02 04:26:01;;;;;;;2.17;1.63;;;18.60;96.30;;;;;;4993671;28;20177;-77
2022/07/02 04:28:27;;;;;;;1.70;1.43;;;18.60;96.30;;;;;;4993030;28;20201;-78
2022/07/02 04:30:53;;;;;;;3.30;1.63;;;18.80;96.30;;;;;;4994206;28;20201;-77
2022/07/02 04:33:18;;;;;;;3.30;1.53;;;19.00;96.30;;;;;;4995125;28;20672;-77
2022/07/02 04:35:43;;;;;;;1.50;1.40;;;19.60;96.30;;;;;;4995576;28;20645;-77
2022/07/02 04:38:10;;;;;;;3.30;1.47;;;20.40;96.30;;;;;;4995706;28;20178;-78
2022/07/02 04:40:35;;;;;;;2.73;1.50;;;21.10;96.30;;;;;;4995782;28;20209;-78
2022/07/02 04:43:00;;;;;;;2.60;1.33;;;21.40;96.30;;;;;;4996176;28;20409;-78
2022/07/02 04:45:26;;;;;;;1.50;1.40;;;21.90;96.30;;;;;;4995680;28;20626;-78
2022/07/02 04:47:51;;;;;;;3.33;1.20;;;21.90;96.30;;;;;;4996239;28;20181;-78
2022/07/02 04:50:17;;;;;;;1.37;1.10;;;22.20;94.40;;;;;;4995978;28;20181;-77
2022/07/02 04:52:47;;;;;;;2.40;1.50;;;22.20;93.90;;;;;;4995518;28;20209;-77
2022/07/02 04:55:12;;;;;;;1.60;1.30;;;22.30;94.90;;;;;;4979054;28;20247;-78
2022/07/02 04:57:38;;;;;;;1.60;1.37;;;22.80;92.70;;;;;;4995198;28;20884;-78
2022/07/02 05:00:04;;;;;;;4.10;1.37;;;23.30;90.80;;;;;;4995239;28;20174;-77
2022/07/02 05:02:29;;;;;;;5.70;1.10;;;22.90;91.90;;;;;;4996283;28;20217;-78
2022/07/02 05:04:55;;;;;;;2.83;1.30;;;22.80;91.40;;;;;;4993574;28;20755;-78
2022/07/02 05:07:20;;;;;;;1.77;1.20;;;22.40;94.20;;;;;;4992405;28;20217;-79
2022/07/02 05:09:46;;;;;;;4.30;1.10;;;22.30;93.90;;;;;;4974962;28;20181;-78
2022/07/02 05:12:11;;;;;;;1.30;1.20;;;22.50;94.70;;;;;;4992746;28;20288;-78
2022/07/02 05:14:38;;;;;;;2.50;1.43;;;21.90;95.70;;;;;;4993518;28;20254;-79
2022/07/02 05:17:04;;;;;;;2.67;1.30;;;22.10;95.80;;;;;;4993710;28;20169;-76
2022/07/02 05:19:29;;;;;;;3.53;1.40;;;23.20;92.50;;;;;;4993627;28;20503;-78
2022/07/02 05:21:55;;;;;;;2.20;1.27;;;23.50;91.00;;;;;;4996441;28;20219;-79
2022/07/02 05:24:20;;;;;;;1.80;1.20;;;23.70;90.70;;;;;;4993688;28;20287;-77
2022/07/02 05:26:46;;;;;;;1.20;1.07;;;24.10;89.80;;;;;;4992536;28;20184;-77
2022/07/02 05:29:11;;;;;;;2.03;1.20;;;23.50;92.40;;;;;;4991435;28;20177;-78
2022/07/02 05:31:37;;;;;;;1.40;1.03;;;22.90;93.80;;;;;;4991814;28;20201;-77
2022/07/02 05:34:02;;;;;;;1.23;1.10;;;22.70;94.60;;;;;;4992940;28;20178;-77
2022/07/02 05:36:28;;;;;;;1.27;1.10;;;23.50;92.60;;;;;;4995318;28;20192;-77
2022/07/02 05:38:53;;;;;;;3.90;1.47;;;24.00;90.70;;;;;;4995069;28;20180;-77
2022/07/02 05:41:18;;;;;;;1.30;1.13;;;24.50;89.10;;;;;;4995373;28;20296;-77
2022/07/02 05:43:44;;;;;;;1.77;1.30;;;23.40;93.50;;;;;;4995288;28;20653;-78
2022/07/02 05:46:10;;;;;;;2.70;1.20;;;23.80;94.60;;;;;;4997723;28;20177;-79
2022/07/02 05:48:38;;;;;;;2.37;1.23;;;24.50;91.10;;;;;;4978840;28;20173;-78
2022/07/02 05:51:04;;;;;;;5.87;1.10;;;25.00;89.20;;;;;;4994543;28;20193;-78
2022/07/02 05:53:30;;;;;;;4.20;1.30;;;25.50;87.70;;;;;;4976600;28;20460;-78
2022/07/02 05:55:55;;;;;;;5.20;1.20;;;25.60;92.20;;;;;;4994699;28;20181;-75
2022/07/02 05:58:21;;;;;;;3.80;1.27;;;25.50;89.80;;;;;;4994191;28;20168;-75
2022/07/02 06:00:46;;;;;;;8.20;1.33;;;26.20;85.30;;;;;;4993834;28;20209;-76
2022/07/02 06:03:12;;;;;;;1.37;1.20;;;27.10;81.20;;;;;;4977199;28;20539;-77
2022/07/02 06:08:22;;;;;;;5.50;1.40;;;27.00;84.70;;;;;;4994174;28;20690;-76
2022/07/02 06:10:47;;;;;;;3.00;1.40;;;27.00;82.60;;;;;;4992295;28;20440;-77
2022/07/02 06:13:15;;;;;;;2.40;1.40;;;27.30;82.60;;;;;;4993180;28;20205;-78
2022/07/02 06:15:40;;;;;;;4.03;1.40;;;27.00;81.70;;;;;;4988848;28;20181;-77
2022/07/02 06:18:06;;;;;;;1.70;1.30;;;26.90;84.00;;;;;;4994342;28;20411;-79
2022/07/02 06:20:31;;;;;;;2.00;1.20;;;26.70;82.50;;;;;;4995783;28;20196;-78
2022/07/02 06:22:57;;;;;;;4.50;1.30;;;27.40;81.00;;;;;;4988224;28;20201;-77
2022/07/02 06:25:23;;;;;;;3.63;1.20;;;28.20;80.30;;;;;;4982867;28;20231;-78
2022/07/02 06:27:48;;;;;;;4.33;1.30;;;28.50;77.00;;;;;;4975212;28;20224;-77
2022/07/02 06:30:14;;;;;;;1.60;1.10;;;28.00;79.30;;;;;;4974983;28;20201;-77
2022/07/02 06:32:39;;;;;;;4.30;2.00;;;27.80;81.20;;;;;;4975078;28;20194;-77
2022/07/02 06:35:05;;;;;;;3.63;1.00;;;27.20;81.10;;;;;;4975214;28;20170;-77
2022/07/02 06:37:31;;;;;;;1.30;1.20;;;27.40;82.60;;;;;;4956758;28;20225;-76
2022/07/02 06:39:57;;;;;;;3.87;1.40;;;27.80;80.40;;;;;;4982210;28;20184;-77
2022/07/02 06:42:22;;;;;;;2.33;1.37;;;27.70;82.60;;;;;;4994414;28;20197;-77
2022/07/02 06:44:50;;;;;;;3.57;1.40;;;27.60;80.90;;;;;;4995100;28;20656;-77
2022/07/02 06:47:17;;;;;;;1.63;1.17;;;28.20;78.60;;;;;;4994130;28;20235;-77
2022/07/02 06:49:43;;;;;;;2.80;1.30;;;28.30;81.40;;;;;;4993592;28;20408;-77
2022/07/02 06:52:09;;;;;;;5.53;1.30;;;28.90;79.90;;;;;;4993990;28;20514;-76
2022/07/02 06:54:36;;;;;;;5.57;1.30;;;29.50;78.90;;;;;;4994163;28;20177;-77
2022/07/02 06:57:02;;;;;;;3.10;1.20;;;29.90;78.50;;;;;;4976621;28;20451;-77
2022/07/02 06:59:28;;;;;;;3.85;1.55;;;30.00;76.70;;;;;;4993558;28;20177;-76
2022/07/02 07:01:53;;;;;;;2.53;1.50;;;30.30;77.60;;;;;;4993698;28;20243;-77
2022/07/02 07:04:19;;;;;;;6.43;1.73;;;30.20;75.60;;;;;;4994020;28;20220;-76
2022/07/02 07:06:51;;;;;;;6.43;1.77;;;30.20;76.60;;;;;;4993828;28;20541;-76
2022/07/02 07:09:17;;;;;;;1.90;1.40;;;29.70;78.10;;;;;;4992914;28;20180;-76
2022/07/02 07:11:42;;;;;;;3.40;1.63;;;30.20;74.40;;;;;;4993667;28;20197;-76
2022/07/02 07:14:08;;;;;;;1.77;1.10;;;29.90;75.30;;;;;;4992634;28;20736;-77
2022/07/02 07:16:33;;;;;;;2.20;1.15;;;28.80;78.40;;;;;;4993224;28;20219;-76
2022/07/02 07:21:24;;;;;;;4.68;1.48;;;30.00;75.60;;;;;;4993807;28;20672;-76
2022/07/02 07:23:50;;;;;;;3.10;1.30;;;30.80;74.30;;;;;;4993488;28;20180;-76
2022/07/02 07:26:16;;;;;;;1.70;1.35;;;31.40;75.20;;;;;;4993607;28;20256;-77
2022/07/02 07:28:42;;;;;;;3.25;1.30;;;31.60;71.10;;;;;;4992508;28;20235;-77
2022/07/02 07:31:07;;;;;;;2.13;1.25;;;31.70;73.90;;;;;;4993603;28;20268;-77
2022/07/02 07:33:33;;;;;;;4.83;1.83;;;31.90;74.20;;;;;;4993292;28;20220;-77
2022/07/02 07:35:58;;;;;;;6.50;1.50;;;31.20;73.20;;;;;;4993230;28;20173;-76
2022/07/02 07:38:24;;;;;;;6.97;2.53;;;31.10;73.90;;;;;;4993158;28;20177;-76
2022/07/02 07:40:49;;;;;;;5.10;1.30;;;31.20;70.10;;;;;;4993149;28;20275;-75
2022/07/02 07:43:15;;;;;;;2.93;1.33;;;29.60;71.50;;;;;;4975748;28;20200;-76
2022/07/02 07:45:40;;;;;;;3.30;0.97;;;29.70;75.40;;;;;;4992711;28;20593;-77
2022/07/02 07:48:06;;;;;;;2.80;1.23;;;29.40;75.20;;;;;;4991149;28;20181;-77
2022/07/02 07:50:31;;;;;;;7.33;1.13;;;27.00;81.70;;;;;;4991132;28;20177;-76
2022/07/02 07:52:57;;;;;;;2.07;1.27;;;26.90;81.70;;;;;;4976221;28;20217;-76
2022/07/02 07:55:23;;;;;;;3.13;1.20;;;26.50;83.20;;;;;;4992400;28;20295;-76
2022/07/02 07:57:48;;;;;;;1.67;1.10;;;26.60;82.90;;;;;;4991223;28;20219;-76
2022/07/02 08:00:15;;;;;;;7.70;1.30;;;26.60;79.00;;;;;;4992965;28;20239;-76
2022/07/02 08:02:40;;;;;;;2.00;1.30;;;26.90;77.90;;;;;;4975373;28;20220;-76
2022/07/02 08:05:06;;;;;;;1.30;1.03;;;27.50;76.90;;;;;;4992781;28;20416;-76
2022/07/02 08:07:36;;;;;;;4.50;1.20;;;27.90;76.00;;;;;;4992190;28;20590;-76
2022/07/02 08:10:02;;;;;;;4.00;1.10;;;28.50;77.80;;;;;;4992205;28;20187;-76
2022/07/02 08:12:28;;;;;;;2.80;1.10;;;29.00;74.80;;;;;;4974513;28;20511;-76
2022/07/02 08:14:53;;;;;;;3.53;1.10;;;29.30;73.70;;;;;;4992441;28;20427;-76
2022/07/02 08:17:19;;;;;;;3.73;1.30;;;29.40;73.60;;;;;;4992553;28;20172;-75
2022/07/02 08:19:44;;;;;;;4.10;1.30;;;28.90;76.00;;;;;;4991388;28;20177;-75
2022/07/02 08:22:10;;;;;;;4.30;1.10;;;28.60;73.90;;;;;;4991887;28;20229;-76
2022/07/02 08:24:35;;;;;;;3.50;1.27;;;28.40;76.20;;;;;;4992299;28;20231;-77
2022/07/02 08:27:01;;;;;;;4.13;1.10;;;29.20;73.80;;;;;;4992528;28;20649;-76
2022/07/02 08:29:26;;;;;;;2.57;0.97;;;28.20;74.50;;;;;;4992231;28;20209;-76
2022/07/02 08:31:52;;;;;;;2.43;1.00;;;25.70;80.70;;;;;;4992565;28;20215;-76
2022/07/02 08:34:17;;;;;;;3.47;1.30;;;25.30;80.10;;;;;;4992541;28;20172;-76
2022/07/02 08:36:43;;;;;;;5.13;1.40;;;;;;;;;;4989733;28;20192;-76
2022/07/02 08:39:09;;;;;;;3.37;1.23;;;25.10;84.50;;;;;;4991637;28;20184;-76
2022/07/02 08:41:35;;;;;;;1.57;0.90;;;26.20;85.90;;;;;;4992378;28;20223;-76
2022/07/02 08:44:05;;;;;;;1.47;0.97;;;27.20;77.90;;;;;;4992663;28;20165;-76
2022/07/02 08:46:31;;;;;;;2.20;1.27;;;28.00;77.00;;;;;;4992607;28;20755;-77
2022/07/02 08:48:58;;;;;;;3.57;1.20;;;28.60;73.80;;;;;;4991676;28;20417;-77
2022/07/02 08:51:25;;;;;;;2.67;1.10;;;29.40;71.10;;;;;;4991964;28;20539;-78
2022/07/02 08:53:51;;;;;;;2.27;1.03;;;29.30;67.70;;;;;;4992258;28;20816;-77
2022/07/02 08:56:17;;;;;;;1.77;0.80;;;28.70;72.50;;;;;;4992259;28;20937;-77
2022/07/02 08:58:44;;;;;;;1.63;0.97;;;29.30;68.80;;;;;;4991699;28;20180;-77
2022/07/02 09:01:11;;;;;;;3.00;1.00;;;29.50;67.40;;;;;;4991890;28;20538;-77
2022/07/02 09:03:38;;;;;;;1.30;0.80;;;28.00;69.20;;;;;;4974828;28;20420;-77
2022/07/02 09:06:06;;;;;;;7.03;1.03;;;28.40;68.70;;;;;;4992262;28;20415;-77
2022/07/02 09:08:31;;;;;;;1.87;0.80;;;27.60;69.00;;;;;;4975856;28;20420;-78
2022/07/02 09:10:58;;;;;;;1.67;0.90;;;27.90;71.50;;;;;;4996083;28;20502;-78
2022/07/02 09:13:24;;;;;;;2.70;1.00;;;27.00;70.80;;;;;;4996052;28;20192;-76
2022/07/02 09:15:52;;;;;;;1.40;1.00;;;25.50;74.50;;;;;;4995973;28;20411;-77
2022/07/02 09:18:18;;;;;;;2.30;0.87;;;26.00;76.00;;;;;;4995250;28;20470;-79
2022/07/02 09:20:44;;;;;;;2.93;1.17;;;25.80;74.90;;;;;;4995454;28;20936;-76
2022/07/02 09:23:20;;;;;;;2.23;0.90;;;25.40;76.70;;;;;;4977906;28;20481;-77
2022/07/02 09:25:47;;;;;;;1.87;0.80;;;25.20;80.20;;;;;;4977862;28;20262;-76
2022/07/02 09:28:14;;;;;;;2.10;0.80;;;25.30;79.10;;;;;;4994648;28;20412;-76
2022/07/02 09:30:40;;;;;;;2.93;0.90;;;24.80;78.30;;;;;;4995209;28;20912;-79
2022/07/02 09:33:31;;;;;;;1.73;0.80;;;24.60;82.00;;;;;;4994931;28;20455;-76
2022/07/02 09:36:07;;;;;;;1.00;0.80;;;24.00;79.90;;;;;;4975927;28;20178;-76
2022/07/02 09:38:43;;;;;;;4.20;1.10;;;23.70;85.60;;;;;;4975243;28;20393;-76
2022/07/02 09:41:12;;;;;;;3.83;1.20;;;23.80;83.10;;;;;;4975997;28;20429;-75
2022/07/02 09:43:38;;;;;;;2.13;0.93;;;23.30;81.50;;;;;;4989892;28;20848;-79
2022/07/02 09:46:14;;;;;;;2.60;1.00;;;23.00;85.20;;;;;;4994795;28;20424;-75
2022/07/02 09:48:39;;;;;;;2.70;0.90;;;23.80;83.40;;;;;;4975982;28;20158;-76
2022/07/02 09:51:05;;;;;;;3.70;1.10;;;24.00;79.20;;;;;;4995032;28;20789;-76
2022/07/02 09:53:30;;;;;;;1.63;1.10;;;24.00;80.20;;;;;;4994923;28;20208;-78
2022/07/02 09:55:56;;;;;;;4.23;0.87;;;24.70;80.20;;;;;;4995195;28;20649;-75
2022/07/02 09:58:25;;;;;;;1.40;0.80;;;25.50;77.70;;;;;;4994250;28;20188;-76
2022/07/02 10:00:52;;;;;;;3.00;1.20;;;25.40;76.50;;;;;;4974821;28;20197;-77
2022/07/02 10:03:17;;;;;;;2.90;0.80;;;25.30;77.70;;;;;;4995107;28;20409;-76
2022/07/02 10:05:48;;;;;;;4.67;1.07;;;25.60;78.30;;;;;;4995134;28;20443;-77
2022/07/02 10:08:13;;;;;;;1.50;0.90;;;25.70;78.20;;;;;;4995437;28;20201;-76
2022/07/02 10:10:39;;;;;;;1.30;0.90;;;26.10;76.10;;;;;;5049213;23;20934;-74
2022/07/02 10:13:06;;;;;;;1.93;1.30;;;26.70;74.70;;;;;;5034648;28;20823;-73
2022/07/02 10:15:33;;;;;;;7.40;1.03;;;26.50;76.20;;;;;;5035536;28;20179;-75
2022/07/02 10:18:06;;;;;;;3.80;1.00;;;26.50;76.30;;;;;;5050562;28;20415;-75
2022/07/02 10:20:33;;;;;;;3.27;0.80;;;27.00;73.90;;;;;;5020623;28;20419;-75
2022/07/02 10:23:05;;;;;;;1.10;0.70;;;26.90;72.60;;;;;;5015105;28;20411;-74
2022/07/02 10:25:32;;;;;;;9.03;1.10;;;24.60;78.10;;;;;;5014673;28;20404;-74
2022/07/02 10:27:58;;;;;;;1.83;0.80;;;24.50;77.80;;;;;;5029947;28;20455;-74
2022/07/02 10:35:36;;;;;;;1.83;0.90;;;22.80;79.20;;;;;;5872147;22;20495;-76
2022/07/02 10:38:02;;;;;;;1.63;0.90;;;22.90;82.70;;;;;;4993898;28;20416;-74
2022/07/02 10:40:28;;;;;;;5.40;1.10;;;22.90;82.40;;;;;;5005603;28;20424;-75
2022/07/02 10:42:59;;;;;;;1.73;0.90;;;22.80;83.00;;;;;;5013398;28;20185;-74
2022/07/02 10:45:25;;;;;;;2.20;1.10;;;22.80;83.60;;;;;;4994625;28;20907;-74
2022/07/02 10:48:06;;;;;;;6.57;1.20;;;22.60;81.50;;;;;;4993698;28;20483;-75
2022/07/02 10:50:35;;;;;;;2.00;0.90;;;22.70;83.60;;;;;;4993714;28;20444;-75
2022/07/02 10:53:08;;;;;;;1.77;1.00;;;22.60;84.20;;;;;;4993753;28;20780;-74
2022/07/02 10:55:34;;;;;;;2.37;0.83;;;22.60;84.90;;;;;;4993748;28;20424;-75
2022/07/02 10:58:02;;;;;;;2.23;1.00;;;22.70;83.70;;;;;;4975974;28;20413;-74
2022/07/02 11:00:36;;;;;;;2.37;0.90;;;22.90;85.30;;;;;;4993695;28;20186;-75
2022/07/02 11:03:26;;;;;;;2.00;0.90;;;23.00;84.00;;;;;;4984988;28;20429;-74
2022/07/02 11:06:00;;;;;;;2.10;1.10;;;22.90;84.30;;;;;;4992782;28;20456;-76
2022/07/02 11:08:43;;;;;;;3.73;0.90;;;23.10;85.90;;;;;;4993002;28;20421;-77
2022/07/02 11:11:09;;;;;;;5.23;1.03;;;22.90;82.30;;;;;;4993244;28;20454;-77
2022/07/02 11:13:40;;;;;;;2.40;0.83;;;23.00;84.00;;;;;;4976103;28;20515;-77
2022/07/02 11:16:20;;;;;;;4.30;0.90;;;22.60;82.80;;;;;;4956836;28;20422;-77
2022/07/02 11:18:47;;;;;;;1.00;0.80;;;23.30;81.80;;;;;;4998107;28;20424;-77
2022/07/02 11:21:13;;;;;;;1.80;0.83;;;22.30;79.10;;;;;;5012627;28;20462;-77
2022/07/02 11:23:40;;;;;;;1.67;1.27;;;22.60;81.50;;;;;;5012772;28;20404;-76
2022/07/02 11:26:07;;;;;;;1.73;0.90;;;22.80;80.10;;;;;;5012299;28;20474;-78
2022/07/02 11:28:33;;;;;;;2.07;0.83;;;24.00;78.50;;;;;;4995077;28;20567;-77
2022/07/02 11:30:59;;;;;;;7.23;0.83;;;24.80;76.40;;;;;;4992578;28;20433;-77
2022/07/02 11:33:24;;;;;;;1.50;0.90;;;25.20;76.30;;;;;;4992268;28;20448;-77
2022/07/02 11:35:51;;;;;;;3.30;1.00;;;25.10;76.20;;;;;;4990997;28;20225;-77
2022/07/02 11:38:18;;;;;;;1.10;0.80;;;25.60;73.80;;;;;;4985179;28;20182;-76
2022/07/02 11:40:43;;;;;;;1.27;0.80;;;25.10;73.20;;;;;;5000740;28;20458;-77
2022/07/02 11:43:16;;;;;;;3.60;1.03;;;25.00;74.80;;;;;;4997662;28;20515;-77
2022/07/02 11:45:45;;;;;;;2.70;0.70;;;25.60;75.50;;;;;;4975287;28;20297;-77
2022/07/02 11:48:22;;;;;;;1.77;0.90;;;26.40;72.90;;;;;;4992242;28;20420;-77
2022/07/02 11:51:00;;;;;;;1.23;0.83;;;25.40;72.50;;;;;;4969410;28;20441;-76
2022/07/02 11:53:26;;;;;;;1.47;0.80;;;26.10;71.00;;;;;;4980860;28;20476;-77
2022/07/02 11:55:52;;;;;;;1.43;0.80;;;26.20;72.80;;;;;;4973231;28;20413;-77
2022/07/02 11:58:18;;;;;;;2.07;0.70;;;25.80;75.10;;;;;;4972535;28;20205;-76
2022/07/02 12:00:44;;;;;;;2.20;0.83;;;25.50;74.90;;;;;;4972858;28;20245;-76
2022/07/02 12:03:13;;;;;;;1.63;0.87;;;25.10;72.80;;;;;;4973181;28;20193;-77
2022/07/02 12:05:52;;;;;;;1.50;0.77;;;25.00;76.50;;;;;;4973006;28;20272;-76
2022/07/02 12:08:18;;;;;;;1.30;0.80;;;24.30;73.60;;;;;;4958556;28;20421;-77
2022/07/02 12:10:43;;;;;;;1.20;0.80;;;24.20;76.10;;;;;;4972740;28;20459;-77
2022/07/02 12:13:10;;;;;;;1.47;0.80;;;24.20;73.90;;;;;;4955178;28;20233;-76
2022/07/02 12:15:43;;;;;;;2.77;0.90;;;24.00;73.40;;;;;;4977352;28;20260;-77
2022/07/02 12:18:19;;;;;;;2.60;0.80;;;24.00;76.90;;;;;;4982911;28;20413;-77
2022/07/02 12:20:45;;;;;;;8.67;1.77;;;24.10;79.60;;;;;;4963902;28;20444;-77
2022/07/02 12:23:11;;;;;;;1.37;0.77;;;24.20;78.70;;;;;;4982160;28;20777;-77
2022/07/02 12:25:47;;;;;;;1.10;0.80;;;23.80;75.90;;;;;;4983158;28;20537;-76
2022/07/02 12:31:00;;;;;;;1.50;0.80;;;24.40;73.70;;;;;;4992083;28;20527;-76
2022/07/02 12:33:34;;;;;;;2.40;0.70;;;25.30;73.20;;;;;;4992208;28;20464;-76
2022/07/02 12:36:04;;;;;;;1.00;0.90;;;25.90;73.20;;;;;;4992132;28;20648;-76
2022/07/02 12:38:44;;;;;;;4.27;0.90;;;25.70;70.90;;;;;;4991968;28;20437;-76
2022/07/02 12:41:10;;;;;;;1.30;0.70;;;25.60;74.40;;;;;;5009210;28;20462;-76
2022/07/02 12:43:36;;;;;;;1.30;0.80;;;26.20;72.70;;;;;;5013699;28;20920;-76
2022/07/02 12:46:06;;;;;;;2.83;1.00;;;26.20;71.90;;;;;;4999524;28;20437;-76
2022/07/02 12:48:31;;;;;;;1.20;0.90;;;24.90;71.90;;;;;;4983161;28;20546;-76
2022/07/02 12:50:58;;;;;;;1.30;1.00;;;24.90;72.00;;;;;;4976668;28;20425;-75
2022/07/02 12:53:24;;;;;;;3.23;0.90;;;24.60;72.50;;;;;;4976233;28;20222;-76
2022/07/02 12:55:57;;;;;;;2.00;0.97;;;24.30;75.30;;;;;;4976440;28;20448;-76
2022/07/02 12:58:24;;;;;;;6.67;1.47;;;24.10;75.50;;;;;;4976041;28;20186;-76
2022/07/02 13:00:50;;;;;;;1.10;0.80;;;23.80;74.30;;;;;;4976299;28;20456;-76
2022/07/02 13:03:17;;;;;;;1.10;0.90;;;23.40;76.30;;;;;;4976445;28;21070;-76
2022/07/02 13:05:45;;;;;;;8.40;1.50;;;23.40;75.40;;;;;;4976164;28;20449;-77
2022/07/02 13:08:11;;;;;;;4.30;0.90;;;24.30;73.50;;;;;;4975515;28;20829;-76
2022/07/02 13:10:38;;;;;;;0.90;0.80;;;24.60;71.80;;;;;;4976245;28;20425;-76
2022/07/02 13:13:04;;;;;;;5.50;1.23;;;24.40;72.00;;;;;;4975932;28;20531;-76
2022/07/02 13:15:30;;;;;;;0.90;0.80;;;25.00;72.30;;;;;;4975818;28;20500;-76
2022/07/02 13:17:56;;;;;;;3.47;0.70;;;25.40;70.50;;;;;;4987102;28;20446;-78
2022/07/02 13:20:22;;;;;;;2.50;0.80;;;25.90;72.00;;;;;;5016121;28;20331;-78
2022/07/02 13:22:47;;;;;;;1.13;0.70;;;26.10;71.20;;;;;;5016357;28;21095;-78
2022/07/02 13:25:14;;;;;;;2.67;0.80;;;26.30;72.10;;;;;;5017434;28;20176;-78
2022/07/02 13:27:40;;;;;;;1.63;0.87;;;26.30;71.60;;;;;;5016297;28;20180;-78
2022/07/02 13:30:07;;;;;;;1.37;0.90;;;26.40;70.20;;;;;;5009813;28;20443;-78
2022/07/02 13:32:33;;;;;;;2.07;0.80;;;26.60;70.10;;;;;;4986633;28;20448;-78
2022/07/02 13:34:59;;;;;;;1.57;1.03;;;26.00;68.40;;;;;;4985832;28;20430;-78
2022/07/02 13:37:24;;;;;;;4.50;0.80;;;25.40;71.30;;;;;;4969223;28;20420;-78
2022/07/02 13:39:50;;;;;;;2.90;0.80;;;25.60;72.90;;;;;;4989870;28;20678;-77
2022/07/02 13:42:15;;;;;;;3.80;0.80;;;25.60;68.80;;;;;;4996870;28;20184;-79
2022/07/02 13:44:41;;;;;;;1.30;0.70;;;26.30;75.90;;;;;;4978476;28;20189;-77
2022/07/02 13:47:06;;;;;;;1.30;0.80;;;26.30;67.30;;;;;;4960291;28;20595;-77
2022/07/02 13:49:32;;;;;;;1.50;0.90;;;26.40;69.40;;;;;;4979341;28;20276;-77
2022/07/02 13:51:58;;;;;;;3.20;1.00;;;25.90;70.60;;;;;;4995056;28;20208;-78
2022/07/02 13:54:23;;;;;;;3.70;0.70;;;25.70;71.30;;;;;;4995834;28;20587;-77
2022/07/02 13:56:49;;;;;;;4.37;0.87;;;26.10;71.80;;;;;;4990572;28;20178;-77
2022/07/02 13:59:14;;;;;;;1.00;0.70;;;26.10;71.20;;;;;;4985168;28;20280;-77
2022/07/02 14:01:40;;;;;;;3.60;0.80;;;25.80;70.50;;;;;;4993958;28;20169;-77
2022/07/02 14:04:06;;;;;;;2.60;0.90;;;25.90;70.70;;;;;;4997100;28;20177;-78
2022/07/02 14:06:32;;;;;;;2.40;0.87;;;25.90;70.80;;;;;;4996643;28;20185;-78
2022/07/02 14:08:58;;;;;;;2.03;0.90;;;26.10;71.30;;;;;;4996325;28;20174;-78
2022/07/02 14:11:24;;;;;;;1.50;0.83;;;26.10;71.10;;;;;;4978433;28;20412;-78
2022/07/02 14:13:50;;;;;;;1.30;0.73;;;26.20;72.30;;;;;;4998949;28;20478;-78
2022/07/02 14:16:16;;;;;;;0.90;0.60;;;26.00;71.20;;;;;;5002433;28;20181;-79
2022/07/02 14:18:41;;;;;;;1.00;0.83;;;25.50;71.80;;;;;;5011734;28;20498;-79
2022/07/02 14:21:07;;;;;;;1.10;0.90;;;25.40;71.90;;;;;;5012454;28;20205;-79
2022/07/02 14:23:33;;;;;;;1.50;0.80;;;26.00;72.50;;;;;;4978681;28;20629;-79
2022/07/02 14:25:59;;;;;;;1.27;0.80;;;25.40;72.90;;;;;;4996785;28;20207;-79
2022/07/02 14:28:25;;;;;;;2.40;1.10;;;25.60;71.20;;;;;;4979469;28;21096;-80
2022/07/02 14:30:50;;;;;;;2.10;0.80;;;25.30;71.50;;;;;;4980980;28;20447;-79
2022/07/02 14:33:17;;;;;;;1.03;0.80;;;25.70;72.10;;;;;;4998062;28;20219;-80
2022/07/02 14:35:44;;;;;;;1.00;0.83;;;25.70;71.90;;;;;;4997102;28;20216;-79
2022/07/02 14:38:11;;;;;;;2.50;0.93;;;25.80;71.50;;;;;;4977292;28;20512;-78
2022/07/02 14:40:37;;;;;;;1.60;1.00;;;25.60;71.70;;;;;;5002062;28;20443;-76
2022/07/02 14:43:02;;;;;;;2.40;0.97;;;25.60;71.90;;;;;;5013471;28;20396;-77
2022/07/02 14:45:28;;;;;;;1.70;0.87;;;25.90;72.70;;;;;;5013774;28;20259;-77
2022/07/02 14:47:53;;;;;;;2.33;0.80;;;25.50;71.40;;;;;;5013089;28;20181;-77
2022/07/02 14:50:19;;;;;;;1.40;1.00;;;25.60;72.80;;;;;;5014677;28;20207;-78
2022/07/02 14:52:44;;;;;;;1.30;0.80;;;25.90;72.90;;;;;;5015164;28;20201;-78
2022/07/02 14:55:10;;;;;;;3.47;1.07;;;26.00;71.50;;;;;;5015616;28;20218;-78
2022/07/02 14:57:35;;;;;;;1.50;0.80;;;26.00;71.40;;;;;;5014447;28;20679;-78
2022/07/02 15:00:01;;;;;;;1.20;0.90;;;26.10;71.20;;;;;;5015070;28;20192;-78
2022/07/02 15:02:26;;;;;;;1.40;1.07;;;26.10;71.40;;;;;;5014548;28;20173;-77
2022/07/02 15:04:52;;;;;;;2.33;0.97;;;26.20;71.50;;;;;;5014904;28;20176;-76
2022/07/02 15:07:17;;;;;;;2.40;1.10;;;25.90;72.90;;;;;;5014183;28;20188;-78
2022/07/02 15:09:43;;;;;;;2.00;1.00;;;25.40;73.20;;;;;;5000334;28;20277;-77
2022/07/02 15:12:09;;;;;;;2.70;1.10;;;25.70;72.10;;;;;;4977542;28;20204;-77
2022/07/02 15:17:19;;;;;;;2.37;1.10;;;25.60;72.90;;;;;;4996613;28;20414;-78
2022/07/02 15:19:46;;;;;;;1.73;1.17;;;25.60;74.10;;;;;;5011798;28;20431;-77
2022/07/02 15:22:13;;;;;;;2.13;1.00;;;26.10;73.40;;;;;;4995249;28;20169;-78
2022/07/02 15:24:44;;;;;;;4.17;1.20;;;26.40;73.30;;;;;;4995138;28;20826;-78
2022/07/02 15:27:12;;;;;;;2.43;1.03;;;26.40;72.40;;;;;;4992211;28;20432;-79
2022/07/02 15:29:38;;;;;;;1.93;1.10;;;26.00;72.30;;;;;;4993723;28;20519;-77
2022/07/02 15:32:10;;;;;;;2.33;1.20;;;25.90;73.00;;;;;;4994150;28;20454;-77
2022/07/02 15:34:43;;;;;;;5.00;0.83;;;25.60;74.30;;;;;;4993667;28;20904;-78
2022/07/02 15:37:08;;;;;;;2.03;0.93;;;25.40;73.20;;;;;;4976582;28;20848;-77
2022/07/02 15:39:41;;;;;;;10.63;1.30;;;25.30;75.00;;;;;;4992872;28;20464;-77
2022/07/02 15:42:07;;;;;;;1.40;1.00;;;25.60;74.30;;;;;;4993031;28;20173;-76
2022/07/02 15:44:33;;;;;;;2.70;1.10;;;25.50;74.00;;;;;;4992743;28;20419;-76
2022/07/02 15:47:01;;;;;;;5.60;1.30;;;25.30;76.20;;;;;;4992731;28;20412;-75
2022/07/02 15:49:27;;;;;;;2.40;1.40;;;25.40;74.30;;;;;;4992046;28;20964;-76
2022/07/02 15:51:55;;;;;;;1.73;1.07;;;25.40;74.10;;;;;;4992952;28;20451;-77
2022/07/02 15:54:26;;;;;;;1.20;1.10;;;25.50;74.60;;;;;;4995073;28;20177;-79
2022/07/02 15:57:01;;;;;;;1.43;1.20;;;25.50;74.10;;;;;;4998758;28;20408;-79
2022/07/02 15:59:29;;;;;;;3.37;1.90;;;25.40;74.50;;;;;;4993902;28;20539;-79
2022/07/02 16:01:55;;;;;;;3.03;2.13;;;25.30;74.70;;;;;;4998033;28;20435;-77
2022/07/02 16:04:42;;;;;;;4.93;1.63;;;25.10;75.40;;;;;;5006960;28;20420;-78
2022/07/02 16:07:10;;;;;;;1.73;1.30;;;25.00;75.90;;;;;;4993661;28;20431;-78
2022/07/02 16:09:36;;;;;;;5.33;1.10;;;24.80;75.20;;;;;;4994702;28;20451;-78
2022/07/02 16:12:03;;;;;;;2.17;1.37;;;25.00;75.00;;;;;;4996916;28;20463;-77
2022/07/02 16:14:29;;;;;;;3.93;1.30;;;24.80;75.70;;;;;;5012690;28;20408;-77
2022/07/02 16:16:55;;;;;;;2.60;1.30;;;24.60;76.20;;;;;;5013065;28;20423;-77
2022/07/02 16:19:22;;;;;;;4.00;1.53;;;24.80;76.80;;;;;;5008122;28;20197;-77
2022/07/02 16:21:51;;;;;;;1.87;1.03;;;24.90;74.00;;;;;;4996500;28;20419;-80
2022/07/02 16:24:18;;;;;;;2.67;1.27;;;25.00;74.40;;;;;;5012249;28;20841;-75
2022/07/02 16:26:44;;;;;;;2.57;1.10;;;25.10;74.60;;;;;;5012555;28;20486;-75
2022/07/02 16:31:50;;;;;;;3.53;1.50;;;24.70;75.60;;;;;;5821153;23;20235;-76
2022/07/02 16:34:36;;;;;;;280.33;250.13;;;24.30;75.80;;;;;;4992430;28;20412;-78
2022/07/02 16:37:13;;;;;;;5.97;3.30;;;24.10;75.90;;;;;;4992303;28;20423;-78
2022/07/02 16:39:44;;;;;;;3.10;1.17;;;24.20;74.70;;;;;;5006424;28;20447;-77
2022/07/02 16:42:10;;;;;;;2.73;1.53;;;24.30;74.90;;;;;;4992286;28;20499;-78
2022/07/02 16:44:39;;;;;;;2.47;1.30;;;24.10;76.30;;;;;;4992268;28;20500;-78
2022/07/02 16:47:08;;;;;;;4.03;1.97;;;24.10;76.40;;;;;;4991989;28;20173;-77
2022/07/02 16:49:45;;;;;;;4.63;1.50;;;24.10;76.80;;;;;;4991853;28;20439;-78
2022/07/02 16:52:13;;;;;;;4.90;1.70;;;23.60;77.20;;;;;;4992262;28;20844;-77
2022/07/02 16:54:41;;;;;;;3.53;3.23;;;23.70;77.10;;;;;;4976200;28;20421;-78
2022/07/02 16:57:06;;;;;;;2.27;1.23;;;23.70;76.90;;;;;;4993606;28;20467;-77
2022/07/02 16:59:33;;;;;;;2.93;1.77;;;23.80;76.70;;;;;;4994306;28;20428;-77
2022/07/02 17:01:59;;;;;;;1.57;1.43;;;23.80;76.70;;;;;;4995186;28;20193;-78
2022/07/02 17:04:28;;;;;;;3.53;2.10;;;23.70;76.90;;;;;;4995453;28;20409;-78
2022/07/02 17:06:54;;;;;;;4.47;1.90;;;23.70;77.40;;;;;;4995100;28;20205;-79